sensor_id;sensor_type;location;lat;lon;timestamp;P1;durP1;ratioP1;P2;durP2;ratioP2
40635;SDS011;26642;55.766;37.828;2024-03-22T00:02:08;7.70;;;4.40;;
40635;SDS011;26642;55.766;37.828;2024-03-22T00:04:35;8.40;;;4.72;;
40635;SDS011;26642;55.766;37.828;2024-03-22T00:07:01;8.68;;;4.70;;
40635;SDS011;26642;55.766;37.828;2024-03-22T00:09:28;7.72;;;4.90;;
40635;SDS011;26642;55.766;37.828;2024-03-22T00:11:54;8.65;;;5.45;;
40635;SDS011;26642;55.766;37.828;2024-03-22T00:14:21;9.25;;;5.25;;
40635;SDS011;26642;55.766;37.828;2024-03-22T00:16:47;7.55;;;4.80;;
40635;SDS011;26642;55.766;37.828;2024-03-22T00:19:13;7.30;;;5.18;;
40635;SDS011;26642;55.766;37.828;2024-03-22T00:21:40;7.75;;;4.93;;
40635;SDS011;26642;55.766;37.828;2024-03-22T00:24:06;7.57;;;4.82;;
40635;SDS011;26642;55.766;37.828;2024-03-22T00:26:32;7.75;;;5.40;;
40635;SDS011;26642;55.766;37.828;2024-03-22T00:28:59;9.00;;;5.30;;
40635;SDS011;26642;55.766;37.828;2024-03-22T00:31:25;9.18;;;4.88;;
40635;SDS011;26642;55.766;37.828;2024-03-22T00:33:52;7.15;;;4.85;;
40635;SDS011;26642;55.766;37.828;2024-03-22T00:36:18;9.13;;;4.97;;
40635;SDS011;26642;55.766;37.828;2024-03-22T00:38:45;7.85;;;4.70;;
40635;SDS011;26642;55.766;37.828;2024-03-22T00:41:12;6.30;;;4.80;;
40635;SDS011;26642;55.766;37.828;2024-03-22T00:43:38;5.25;;;4.40;;
40635;SDS011;26642;55.766;37.828;2024-03-22T00:46:04;7.15;;;4.57;;
40635;SDS011;26642;55.766;37.828;2024-03-22T00:48:31;5.57;;;4.38;;
40635;SDS011;26642;55.766;37.828;2024-03-22T00:50:57;8.23;;;4.78;;
40635;SDS011;26642;55.766;37.828;2024-03-22T00:53:23;7.53;;;4.88;;
40635;SDS011;26642;55.766;37.828;2024-03-22T00:55:50;6.30;;;4.63;;
40635;SDS011;26642;55.766;37.828;2024-03-22T00:58:19;7.32;;;4.90;;
40635;SDS011;26642;55.766;37.828;2024-03-22T01:00:46;7.70;;;4.70;;
40635;SDS011;26642;55.766;37.828;2024-03-22T01:03:12;5.13;;;4.05;;
40635;SDS011;26642;55.766;37.828;2024-03-22T01:05:39;7.38;;;4.95;;
40635;SDS011;26642;55.766;37.828;2024-03-22T01:08:07;6.88;;;4.57;;
40635;SDS011;26642;55.766;37.828;2024-03-22T01:10:33;5.60;;;4.45;;
40635;SDS011;26642;55.766;37.828;2024-03-22T01:13:00;6.45;;;4.38;;
40635;SDS011;26642;55.766;37.828;2024-03-22T01:15:26;7.07;;;4.63;;
40635;SDS011;26642;55.766;37.828;2024-03-22T01:17:53;7.78;;;4.57;;
40635;SDS011;26642;55.766;37.828;2024-03-22T01:20:19;8.32;;;5.13;;
40635;SDS011;26642;55.766;37.828;2024-03-22T01:22:46;8.77;;;4.82;;
40635;SDS011;26642;55.766;37.828;2024-03-22T01:25:12;7.30;;;4.60;;
40635;SDS011;26642;55.766;37.828;2024-03-22T01:27:38;7.45;;;4.80;;
40635;SDS011;26642;55.766;37.828;2024-03-22T01:30:05;8.27;;;4.53;;
40635;SDS011;26642;55.766;37.828;2024-03-22T01:32:31;7.13;;;4.47;;
40635;SDS011;26642;55.766;37.828;2024-03-22T01:34:58;9.45;;;5.00;;
40635;SDS011;26642;55.766;37.828;2024-03-22T01:37:24;7.50;;;4.55;;
40635;SDS011;26642;55.766;37.828;2024-03-22T01:39:50;7.65;;;4.60;;
40635;SDS011;26642;55.766;37.828;2024-03-22T01:42:17;7.22;;;4.78;;
40635;SDS011;26642;55.766;37.828;2024-03-22T01:44:43;7.40;;;4.63;;
40635;SDS011;26642;55.766;37.828;2024-03-22T01:47:09;8.10;;;5.28;;
40635;SDS011;26642;55.766;37.828;2024-03-22T01:49:36;6.93;;;4.47;;
40635;SDS011;26642;55.766;37.828;2024-03-22T01:52:03;7.25;;;4.70;;
40635;SDS011;26642;55.766;37.828;2024-03-22T01:54:29;5.75;;;4.55;;
40635;SDS011;26642;55.766;37.828;2024-03-22T01:56:56;12.18;;;5.25;;
40635;SDS011;26642;55.766;37.828;2024-03-22T01:59:22;8.18;;;4.43;;
40635;SDS011;26642;55.766;37.828;2024-03-22T02:01:49;8.57;;;5.07;;
40635;SDS011;26642;55.766;37.828;2024-03-22T02:04:15;8.13;;;4.80;;
40635;SDS011;26642;55.766;37.828;2024-03-22T02:06:42;8.02;;;4.53;;
40635;SDS011;26642;55.766;37.828;2024-03-22T02:09:08;5.55;;;3.90;;
40635;SDS011;26642;55.766;37.828;2024-03-22T02:11:35;6.13;;;4.70;;
40635;SDS011;26642;55.766;37.828;2024-03-22T02:14:04;7.65;;;5.30;;
40635;SDS011;26642;55.766;37.828;2024-03-22T02:16:31;7.28;;;5.18;;
40635;SDS011;26642;55.766;37.828;2024-03-22T02:18:57;6.28;;;4.40;;
40635;SDS011;26642;55.766;37.828;2024-03-22T02:21:23;6.05;;;4.60;;
40635;SDS011;26642;55.766;37.828;2024-03-22T02:23:50;6.60;;;4.70;;
40635;SDS011;26642;55.766;37.828;2024-03-22T02:26:16;9.23;;;5.20;;
40635;SDS011;26642;55.766;37.828;2024-03-22T02:28:42;7.18;;;4.50;;
40635;SDS011;26642;55.766;37.828;2024-03-22T02:31:09;6.68;;;4.70;;
40635;SDS011;26642;55.766;37.828;2024-03-22T02:33:35;7.60;;;5.30;;
40635;SDS011;26642;55.766;37.828;2024-03-22T02:36:01;7.35;;;4.68;;
40635;SDS011;26642;55.766;37.828;2024-03-22T02:38:28;9.10;;;5.05;;
40635;SDS011;26642;55.766;37.828;2024-03-22T02:40:54;10.80;;;5.55;;
40635;SDS011;26642;55.766;37.828;2024-03-22T02:43:20;7.93;;;5.28;;
40635;SDS011;26642;55.766;37.828;2024-03-22T02:45:47;8.27;;;5.20;;
40635;SDS011;26642;55.766;37.828;2024-03-22T02:48:14;7.50;;;5.07;;
40635;SDS011;26642;55.766;37.828;2024-03-22T02:50:40;7.32;;;4.65;;
40635;SDS011;26642;55.766;37.828;2024-03-22T02:53:07;7.22;;;4.88;;
40635;SDS011;26642;55.766;37.828;2024-03-22T02:55:39;9.15;;;5.25;;
40635;SDS011;26642;55.766;37.828;2024-03-22T02:58:06;6.65;;;5.05;;
40635;SDS011;26642;55.766;37.828;2024-03-22T03:00:38;7.55;;;4.80;;
40635;SDS011;26642;55.766;37.828;2024-03-22T03:03:05;8.10;;;5.43;;
40635;SDS011;26642;55.766;37.828;2024-03-22T03:05:32;7.78;;;4.90;;
40635;SDS011;26642;55.766;37.828;2024-03-22T03:07:58;8.70;;;5.13;;
40635;SDS011;26642;55.766;37.828;2024-03-22T03:10:24;9.40;;;5.13;;
40635;SDS011;26642;55.766;37.828;2024-03-22T03:12:51;6.22;;;4.82;;
40635;SDS011;26642;55.766;37.828;2024-03-22T03:15:17;7.78;;;4.85;;
40635;SDS011;26642;55.766;37.828;2024-03-22T03:17:43;9.50;;;5.00;;
40635;SDS011;26642;55.766;37.828;2024-03-22T03:20:10;6.22;;;4.72;;
40635;SDS011;26642;55.766;37.828;2024-03-22T03:22:41;6.95;;;5.25;;
40635;SDS011;26642;55.766;37.828;2024-03-22T03:25:08;7.85;;;5.28;;
40635;SDS011;26642;55.766;37.828;2024-03-22T03:27:34;7.75;;;5.35;;
40635;SDS011;26642;55.766;37.828;2024-03-22T03:30:01;8.60;;;5.57;;
40635;SDS011;26642;55.766;37.828;2024-03-22T03:32:30;7.55;;;5.10;;
40635;SDS011;26642;55.766;37.828;2024-03-22T03:34:56;8.90;;;5.63;;
40635;SDS011;26642;55.766;37.828;2024-03-22T03:37:22;7.18;;;5.03;;
40635;SDS011;26642;55.766;37.828;2024-03-22T03:39:49;7.45;;;5.18;;
40635;SDS011;26642;55.766;37.828;2024-03-22T03:42:15;8.98;;;5.35;;
40635;SDS011;26642;55.766;37.828;2024-03-22T03:44:41;7.53;;;4.70;;
40635;SDS011;26642;55.766;37.828;2024-03-22T03:47:08;7.50;;;5.53;;
40635;SDS011;26642;55.766;37.828;2024-03-22T03:49:34;7.50;;;5.60;;
40635;SDS011;26642;55.766;37.828;2024-03-22T03:52:00;9.07;;;5.30;;
40635;SDS011;26642;55.766;37.828;2024-03-22T03:54:27;8.32;;;4.95;;
40635;SDS011;26642;55.766;37.828;2024-03-22T03:56:54;10.25;;;5.40;;
40635;SDS011;26642;55.766;37.828;2024-03-22T03:59:20;8.63;;;5.55;;
40635;SDS011;26642;55.766;37.828;2024-03-22T04:01:46;6.75;;;4.95;;
40635;SDS011;26642;55.766;37.828;2024-03-22T04:04:13;6.93;;;5.40;;
40635;SDS011;26642;55.766;37.828;2024-03-22T04:06:39;7.78;;;5.03;;
40635;SDS011;26642;55.766;37.828;2024-03-22T04:09:05;7.38;;;5.45;;
40635;SDS011;26642;55.766;37.828;2024-03-22T04:11:50;7.03;;;5.50;;
40635;SDS011;26642;55.766;37.828;2024-03-22T04:14:17;10.60;;;5.32;;
40635;SDS011;26642;55.766;37.828;2024-03-22T04:16:43;8.05;;;5.60;;
40635;SDS011;26642;55.766;37.828;2024-03-22T04:19:09;9.00;;;5.93;;
40635;SDS011;26642;55.766;37.828;2024-03-22T04:21:36;11.30;;;6.10;;
40635;SDS011;26642;55.766;37.828;2024-03-22T04:24:02;10.48;;;6.20;;
40635;SDS011;26642;55.766;37.828;2024-03-22T04:26:29;8.50;;;5.82;;
40635;SDS011;26642;55.766;37.828;2024-03-22T04:28:55;11.20;;;6.70;;
40635;SDS011;26642;55.766;37.828;2024-03-22T04:31:21;11.27;;;5.88;;
40635;SDS011;26642;55.766;37.828;2024-03-22T04:33:48;9.07;;;5.75;;
40635;SDS011;26642;55.766;37.828;2024-03-22T04:36:15;8.77;;;6.15;;
40635;SDS011;26642;55.766;37.828;2024-03-22T04:38:41;12.32;;;6.65;;
40635;SDS011;26642;55.766;37.828;2024-03-22T04:41:07;11.68;;;6.80;;
40635;SDS011;26642;55.766;37.828;2024-03-22T04:43:34;9.73;;;6.80;;
40635;SDS011;26642;55.766;37.828;2024-03-22T04:46:01;10.90;;;6.88;;
40635;SDS011;26642;55.766;37.828;2024-03-22T04:48:27;10.57;;;7.43;;
40635;SDS011;26642;55.766;37.828;2024-03-22T04:50:53;9.40;;;6.57;;
40635;SDS011;26642;55.766;37.828;2024-03-22T04:53:20;10.85;;;6.75;;
40635;SDS011;26642;55.766;37.828;2024-03-22T04:55:47;12.88;;;7.35;;
40635;SDS011;26642;55.766;37.828;2024-03-22T04:58:17;8.60;;;6.65;;
40635;SDS011;26642;55.766;37.828;2024-03-22T05:00:44;11.93;;;7.40;;
40635;SDS011;26642;55.766;37.828;2024-03-22T05:03:11;9.68;;;6.60;;
40635;SDS011;26642;55.766;37.828;2024-03-22T05:05:38;11.85;;;7.15;;
40635;SDS011;26642;55.766;37.828;2024-03-22T05:08:05;13.43;;;7.63;;
40635;SDS011;26642;55.766;37.828;2024-03-22T05:10:31;13.07;;;8.00;;
40635;SDS011;26642;55.766;37.828;2024-03-22T05:12:58;11.77;;;7.85;;
40635;SDS011;26642;55.766;37.828;2024-03-22T05:15:25;9.35;;;7.30;;
40635;SDS011;26642;55.766;37.828;2024-03-22T05:17:52;13.50;;;7.65;;
40635;SDS011;26642;55.766;37.828;2024-03-22T05:20:18;10.50;;;8.13;;
40635;SDS011;26642;55.766;37.828;2024-03-22T05:22:45;12.70;;;8.35;;
40635;SDS011;26642;55.766;37.828;2024-03-22T05:25:11;11.63;;;8.05;;
40635;SDS011;26642;55.766;37.828;2024-03-22T05:27:58;15.90;;;7.63;;
40635;SDS011;26642;55.766;37.828;2024-03-22T05:30:43;9.35;;;7.50;;
40635;SDS011;26642;55.766;37.828;2024-03-22T05:33:09;12.88;;;7.82;;
40635;SDS011;26642;55.766;37.828;2024-03-22T05:35:36;12.57;;;7.38;;
40635;SDS011;26642;55.766;37.828;2024-03-22T05:38:02;12.10;;;7.82;;
40635;SDS011;26642;55.766;37.828;2024-03-22T05:40:29;14.15;;;7.90;;
40635;SDS011;26642;55.766;37.828;2024-03-22T05:42:55;9.30;;;7.10;;
40635;SDS011;26642;55.766;37.828;2024-03-22T05:45:21;10.55;;;7.05;;
40635;SDS011;26642;55.766;37.828;2024-03-22T05:47:48;9.55;;;6.85;;
40635;SDS011;26642;55.766;37.828;2024-03-22T05:50:14;10.00;;;6.47;;
40635;SDS011;26642;55.766;37.828;2024-03-22T05:52:41;9.95;;;7.00;;
40635;SDS011;26642;55.766;37.828;2024-03-22T05:55:07;9.57;;;6.70;;
40635;SDS011;26642;55.766;37.828;2024-03-22T05:57:34;8.60;;;7.20;;
40635;SDS011;26642;55.766;37.828;2024-03-22T06:00:00;11.20;;;7.60;;
40635;SDS011;26642;55.766;37.828;2024-03-22T06:02:27;9.98;;;7.18;;
40635;SDS011;26642;55.766;37.828;2024-03-22T06:04:53;12.73;;;7.95;;
40635;SDS011;26642;55.766;37.828;2024-03-22T06:07:20;10.82;;;7.55;;
40635;SDS011;26642;55.766;37.828;2024-03-22T06:09:46;9.25;;;6.97;;
40635;SDS011;26642;55.766;37.828;2024-03-22T06:12:13;10.05;;;7.22;;
40635;SDS011;26642;55.766;37.828;2024-03-22T06:14:40;12.75;;;7.38;;
40635;SDS011;26642;55.766;37.828;2024-03-22T06:17:06;12.63;;;6.93;;
40635;SDS011;26642;55.766;37.828;2024-03-22T06:19:32;10.70;;;7.15;;
40635;SDS011;26642;55.766;37.828;2024-03-22T06:21:59;10.20;;;7.32;;
40635;SDS011;26642;55.766;37.828;2024-03-22T06:24:25;10.68;;;6.82;;
40635;SDS011;26642;55.766;37.828;2024-03-22T06:26:52;9.95;;;7.18;;
40635;SDS011;26642;55.766;37.828;2024-03-22T06:29:18;9.95;;;7.40;;
40635;SDS011;26642;55.766;37.828;2024-03-22T06:31:44;12.45;;;7.53;;
40635;SDS011;26642;55.766;37.828;2024-03-22T06:34:11;9.18;;;7.55;;
40635;SDS011;26642;55.766;37.828;2024-03-22T06:36:37;13.70;;;8.43;;
40635;SDS011;26642;55.766;37.828;2024-03-22T06:39:03;12.05;;;8.88;;
40635;SDS011;26642;55.766;37.828;2024-03-22T06:41:35;11.50;;;8.65;;
40635;SDS011;26642;55.766;37.828;2024-03-22T06:44:01;11.18;;;7.85;;
40635;SDS011;26642;55.766;37.828;2024-03-22T06:46:28;12.23;;;8.52;;
40635;SDS011;26642;55.766;37.828;2024-03-22T06:48:54;11.43;;;8.25;;
40635;SDS011;26642;55.766;37.828;2024-03-22T06:51:20;13.65;;;8.38;;
40635;SDS011;26642;55.766;37.828;2024-03-22T06:53:47;13.82;;;8.80;;
40635;SDS011;26642;55.766;37.828;2024-03-22T06:56:13;12.82;;;9.20;;
40635;SDS011;26642;55.766;37.828;2024-03-22T06:58:40;13.05;;;8.57;;
40635;SDS011;26642;55.766;37.828;2024-03-22T07:01:06;12.65;;;8.18;;
40635;SDS011;26642;55.766;37.828;2024-03-22T07:03:33;12.27;;;8.40;;
40635;SDS011;26642;55.766;37.828;2024-03-22T07:05:59;12.02;;;8.68;;
40635;SDS011;26642;55.766;37.828;2024-03-22T07:08:29;14.13;;;8.90;;
40635;SDS011;26642;55.766;37.828;2024-03-22T07:10:56;11.18;;;8.63;;
40635;SDS011;26642;55.766;37.828;2024-03-22T07:13:22;14.93;;;8.75;;
40635;SDS011;26642;55.766;37.828;2024-03-22T07:15:48;13.38;;;9.10;;
40635;SDS011;26642;55.766;37.828;2024-03-22T07:18:15;12.55;;;8.07;;
40635;SDS011;26642;55.766;37.828;2024-03-22T07:20:41;13.00;;;8.07;;
40635;SDS011;26642;55.766;37.828;2024-03-22T07:23:08;12.35;;;8.00;;
40635;SDS011;26642;55.766;37.828;2024-03-22T07:25:34;11.77;;;7.80;;
40635;SDS011;26642;55.766;37.828;2024-03-22T07:28:01;12.98;;;8.35;;
40635;SDS011;26642;55.766;37.828;2024-03-22T07:30:27;14.05;;;8.50;;
40635;SDS011;26642;55.766;37.828;2024-03-22T07:32:53;13.55;;;7.97;;
40635;SDS011;26642;55.766;37.828;2024-03-22T07:35:20;12.10;;;8.05;;
40635;SDS011;26642;55.766;37.828;2024-03-22T07:37:46;11.73;;;7.97;;
40635;SDS011;26642;55.766;37.828;2024-03-22T07:40:13;10.38;;;7.55;;
40635;SDS011;26642;55.766;37.828;2024-03-22T07:42:39;12.48;;;7.43;;
40635;SDS011;26642;55.766;37.828;2024-03-22T07:45:05;10.52;;;7.10;;
40635;SDS011;26642;55.766;37.828;2024-03-22T07:47:32;8.30;;;6.43;;
40635;SDS011;26642;55.766;37.828;2024-03-22T07:49:59;10.63;;;7.25;;
40635;SDS011;26642;55.766;37.828;2024-03-22T07:52:25;9.60;;;7.40;;
40635;SDS011;26642;55.766;37.828;2024-03-22T07:54:52;10.65;;;6.97;;
40635;SDS011;26642;55.766;37.828;2024-03-22T07:57:18;15.25;;;6.93;;
40635;SDS011;26642;55.766;37.828;2024-03-22T07:59:45;11.82;;;6.55;;
40635;SDS011;26642;55.766;37.828;2024-03-22T08:02:12;10.38;;;6.25;;
40635;SDS011;26642;55.766;37.828;2024-03-22T08:04:39;12.57;;;6.03;;
40635;SDS011;26642;55.766;37.828;2024-03-22T08:07:05;11.73;;;6.43;;
40635;SDS011;26642;55.766;37.828;2024-03-22T08:09:31;10.77;;;6.70;;
40635;SDS011;26642;55.766;37.828;2024-03-22T08:11:58;11.60;;;6.13;;
40635;SDS011;26642;55.766;37.828;2024-03-22T08:14:24;10.13;;;6.07;;
40635;SDS011;26642;55.766;37.828;2024-03-22T08:16:50;8.27;;;5.30;;
40635;SDS011;26642;55.766;37.828;2024-03-22T08:19:17;9.25;;;5.50;;
40635;SDS011;26642;55.766;37.828;2024-03-22T08:21:43;9.25;;;5.72;;
40635;SDS011;26642;55.766;37.828;2024-03-22T08:24:09;10.25;;;6.30;;
40635;SDS011;26642;55.766;37.828;2024-03-22T08:26:36;7.30;;;5.60;;
40635;SDS011;26642;55.766;37.828;2024-03-22T08:29:02;8.00;;;5.70;;
40635;SDS011;26642;55.766;37.828;2024-03-22T08:31:28;8.40;;;5.68;;
40635;SDS011;26642;55.766;37.828;2024-03-22T08:33:55;8.60;;;5.32;;
40635;SDS011;26642;55.766;37.828;2024-03-22T08:36:21;8.93;;;6.50;;
40635;SDS011;26642;55.766;37.828;2024-03-22T08:38:52;8.13;;;5.80;;
40635;SDS011;26642;55.766;37.828;2024-03-22T08:41:18;10.88;;;6.43;;
40635;SDS011;26642;55.766;37.828;2024-03-22T08:43:44;9.85;;;6.05;;
40635;SDS011;26642;55.766;37.828;2024-03-22T08:46:11;9.35;;;6.43;;
40635;SDS011;26642;55.766;37.828;2024-03-22T08:48:37;9.43;;;6.25;;
40635;SDS011;26642;55.766;37.828;2024-03-22T08:51:03;9.82;;;6.78;;
40635;SDS011;26642;55.766;37.828;2024-03-22T08:53:30;7.75;;;6.10;;
40635;SDS011;26642;55.766;37.828;2024-03-22T08:55:56;8.00;;;5.20;;
40635;SDS011;26642;55.766;37.828;2024-03-22T08:58:23;7.65;;;5.38;;
40635;SDS011;26642;55.766;37.828;2024-03-22T09:00:50;8.18;;;5.88;;
40635;SDS011;26642;55.766;37.828;2024-03-22T09:03:16;8.63;;;5.47;;
40635;SDS011;26642;55.766;37.828;2024-03-22T09:05:43;6.15;;;4.75;;
40635;SDS011;26642;55.766;37.828;2024-03-22T09:08:09;6.43;;;5.35;;
40635;SDS011;26642;55.766;37.828;2024-03-22T09:10:36;9.43;;;5.38;;
40635;SDS011;26642;55.766;37.828;2024-03-22T09:13:02;7.22;;;5.15;;
40635;SDS011;26642;55.766;37.828;2024-03-22T09:15:28;7.15;;;5.65;;
40635;SDS011;26642;55.766;37.828;2024-03-22T09:17:55;11.43;;;5.40;;
40635;SDS011;26642;55.766;37.828;2024-03-22T09:20:21;8.73;;;5.55;;
40635;SDS011;26642;55.766;37.828;2024-03-22T09:22:48;6.95;;;5.90;;
40635;SDS011;26642;55.766;37.828;2024-03-22T09:25:14;9.15;;;5.57;;
40635;SDS011;26642;55.766;37.828;2024-03-22T09:27:41;9.50;;;6.25;;
40635;SDS011;26642;55.766;37.828;2024-03-22T09:30:07;8.73;;;6.65;;
40635;SDS011;26642;55.766;37.828;2024-03-22T09:32:35;9.52;;;6.70;;
40635;SDS011;26642;55.766;37.828;2024-03-22T09:35:01;8.65;;;5.68;;
40635;SDS011;26642;55.766;37.828;2024-03-22T09:37:27;9.52;;;5.45;;
40635;SDS011;26642;55.766;37.828;2024-03-22T09:39:54;8.13;;;5.50;;
40635;SDS011;26642;55.766;37.828;2024-03-22T09:42:20;12.20;;;6.63;;
40635;SDS011;26642;55.766;37.828;2024-03-22T09:44:50;10.48;;;6.72;;
40635;SDS011;26642;55.766;37.828;2024-03-22T09:47:18;9.20;;;6.32;;
40635;SDS011;26642;55.766;37.828;2024-03-22T09:49:46;9.63;;;7.13;;
40635;SDS011;26642;55.766;37.828;2024-03-22T09:52:15;10.90;;;6.82;;
40635;SDS011;26642;55.766;37.828;2024-03-22T09:54:44;9.98;;;6.70;;
40635;SDS011;26642;55.766;37.828;2024-03-22T09:57:14;10.48;;;6.88;;
40635;SDS011;26642;55.766;37.828;2024-03-22T09:59:41;11.40;;;6.85;;
40635;SDS011;26642;55.766;37.828;2024-03-22T10:02:09;9.93;;;6.78;;
40635;SDS011;26642;55.766;37.828;2024-03-22T10:04:38;10.85;;;7.50;;
40635;SDS011;26642;55.766;37.828;2024-03-22T10:07:04;10.23;;;6.60;;
40635;SDS011;26642;55.766;37.828;2024-03-22T10:09:31;11.85;;;6.55;;
40635;SDS011;26642;55.766;37.828;2024-03-22T10:11:58;9.15;;;6.57;;
40635;SDS011;26642;55.766;37.828;2024-03-22T10:14:24;10.20;;;6.88;;
40635;SDS011;26642;55.766;37.828;2024-03-22T10:16:51;9.32;;;6.22;;
40635;SDS011;26642;55.766;37.828;2024-03-22T10:19:20;10.32;;;7.57;;
40635;SDS011;26642;55.766;37.828;2024-03-22T10:21:47;10.13;;;7.68;;
40635;SDS011;26642;55.766;37.828;2024-03-22T10:24:14;8.57;;;6.97;;
40635;SDS011;26642;55.766;37.828;2024-03-22T10:26:40;8.95;;;6.50;;
40635;SDS011;26642;55.766;37.828;2024-03-22T10:29:07;10.75;;;7.82;;
40635;SDS011;26642;55.766;37.828;2024-03-22T10:31:34;8.90;;;7.35;;
40635;SDS011;26642;55.766;37.828;2024-03-22T10:34:02;10.60;;;7.53;;
40635;SDS011;26642;55.766;37.828;2024-03-22T10:36:33;12.20;;;7.20;;
40635;SDS011;26642;55.766;37.828;2024-03-22T10:39:00;10.82;;;7.15;;
40635;SDS011;26642;55.766;37.828;2024-03-22T10:41:27;10.70;;;6.68;;
40635;SDS011;26642;55.766;37.828;2024-03-22T10:43:53;11.07;;;7.40;;
40635;SDS011;26642;55.766;37.828;2024-03-22T10:46:20;10.45;;;7.57;;
40635;SDS011;26642;55.766;37.828;2024-03-22T10:48:47;9.93;;;6.72;;
40635;SDS011;26642;55.766;37.828;2024-03-22T10:51:16;12.20;;;7.05;;
40635;SDS011;26642;55.766;37.828;2024-03-22T10:53:46;9.35;;;7.45;;
40635;SDS011;26642;55.766;37.828;2024-03-22T10:56:32;10.55;;;7.47;;
40635;SDS011;26642;55.766;37.828;2024-03-22T10:59:02;12.75;;;8.18;;
40635;SDS011;26642;55.766;37.828;2024-03-22T11:01:29;11.18;;;7.57;;
40635;SDS011;26642;55.766;37.828;2024-03-22T11:04:05;9.13;;;6.60;;
40635;SDS011;26642;55.766;37.828;2024-03-22T11:06:32;12.45;;;6.88;;
40635;SDS011;26642;55.766;37.828;2024-03-22T11:08:59;7.90;;;6.60;;
40635;SDS011;26642;55.766;37.828;2024-03-22T11:11:34;10.25;;;7.00;;
40635;SDS011;26642;55.766;37.828;2024-03-22T11:14:04;8.30;;;6.55;;
40635;SDS011;26642;55.766;37.828;2024-03-22T11:16:30;8.48;;;7.10;;
40635;SDS011;26642;55.766;37.828;2024-03-22T11:18:57;8.15;;;6.45;;
40635;SDS011;26642;55.766;37.828;2024-03-22T11:21:23;7.75;;;6.45;;
40635;SDS011;26642;55.766;37.828;2024-03-22T11:23:49;9.77;;;6.88;;
40635;SDS011;26642;55.766;37.828;2024-03-22T11:26:16;11.93;;;6.28;;
40635;SDS011;26642;55.766;37.828;2024-03-22T11:28:43;11.25;;;6.35;;
40635;SDS011;26642;55.766;37.828;2024-03-22T11:31:10;8.77;;;6.05;;
40635;SDS011;26642;55.766;37.828;2024-03-22T11:33:36;8.82;;;6.53;;
40635;SDS011;26642;55.766;37.828;2024-03-22T11:36:03;9.70;;;6.28;;
40635;SDS011;26642;55.766;37.828;2024-03-22T11:38:30;8.95;;;6.40;;
40635;SDS011;26642;55.766;37.828;2024-03-22T11:40:57;9.48;;;5.93;;
40635;SDS011;26642;55.766;37.828;2024-03-22T11:43:25;9.30;;;6.00;;
40635;SDS011;26642;55.766;37.828;2024-03-22T11:45:53;9.77;;;6.38;;
40635;SDS011;26642;55.766;37.828;2024-03-22T11:48:19;10.35;;;6.00;;
40635;SDS011;26642;55.766;37.828;2024-03-22T11:50:48;7.60;;;6.10;;
40635;SDS011;26642;55.766;37.828;2024-03-22T11:53:18;12.73;;;6.18;;
40635;SDS011;26642;55.766;37.828;2024-03-22T11:55:44;8.82;;;5.53;;
40635;SDS011;26642;55.766;37.828;2024-03-22T11:58:10;8.77;;;5.38;;
40635;SDS011;26642;55.766;37.828;2024-03-22T12:00:37;8.43;;;6.20;;
40635;SDS011;26642;55.766;37.828;2024-03-22T12:03:04;8.95;;;5.85;;
40635;SDS011;26642;55.766;37.828;2024-03-22T12:05:33;11.25;;;5.88;;
40635;SDS011;26642;55.766;37.828;2024-03-22T12:08:00;7.40;;;5.90;;
40635;SDS011;26642;55.766;37.828;2024-03-22T12:10:27;10.07;;;5.15;;
40635;SDS011;26642;55.766;37.828;2024-03-22T12:12:53;10.13;;;5.65;;
40635;SDS011;26642;55.766;37.828;2024-03-22T12:15:21;7.38;;;5.60;;
40635;SDS011;26642;55.766;37.828;2024-03-22T12:17:47;8.57;;;5.68;;
40635;SDS011;26642;55.766;37.828;2024-03-22T12:20:13;9.15;;;5.18;;
40635;SDS011;26642;55.766;37.828;2024-03-22T12:22:40;7.50;;;5.15;;
40635;SDS011;26642;55.766;37.828;2024-03-22T12:25:07;9.10;;;5.30;;
40635;SDS011;26642;55.766;37.828;2024-03-22T12:27:35;9.52;;;5.53;;
40635;SDS011;26642;55.766;37.828;2024-03-22T12:30:01;7.22;;;5.07;;
40635;SDS011;26642;55.766;37.828;2024-03-22T12:32:27;7.70;;;4.68;;
40635;SDS011;26642;55.766;37.828;2024-03-22T12:34:54;6.68;;;5.15;;
40635;SDS011;26642;55.766;37.828;2024-03-22T12:37:20;7.57;;;4.95;;
40635;SDS011;26642;55.766;37.828;2024-03-22T12:39:48;6.35;;;4.93;;
40635;SDS011;26642;55.766;37.828;2024-03-22T12:42:14;7.68;;;5.03;;
40635;SDS011;26642;55.766;37.828;2024-03-22T12:44:40;9.48;;;4.90;;
40635;SDS011;26642;55.766;37.828;2024-03-22T12:47:07;8.38;;;5.30;;
40635;SDS011;26642;55.766;37.828;2024-03-22T12:49:34;8.13;;;4.97;;
40635;SDS011;26642;55.766;37.828;2024-03-22T12:52:00;10.80;;;5.25;;
40635;SDS011;26642;55.766;37.828;2024-03-22T12:54:26;6.85;;;4.95;;
40635;SDS011;26642;55.766;37.828;2024-03-22T12:56:53;6.85;;;4.82;;
40635;SDS011;26642;55.766;37.828;2024-03-22T12:59:19;7.78;;;5.00;;
40635;SDS011;26642;55.766;37.828;2024-03-22T13:01:46;8.60;;;5.10;;
40635;SDS011;26642;55.766;37.828;2024-03-22T13:04:13;9.40;;;5.22;;
40635;SDS011;26642;55.766;37.828;2024-03-22T13:06:39;10.05;;;5.13;;
40635;SDS011;26642;55.766;37.828;2024-03-22T13:09:05;6.70;;;4.72;;
40635;SDS011;26642;55.766;37.828;2024-03-22T13:11:35;7.55;;;5.32;;
40635;SDS011;26642;55.766;37.828;2024-03-22T13:14:02;9.68;;;5.10;;
40635;SDS011;26642;55.766;37.828;2024-03-22T13:16:47;7.65;;;4.63;;
40635;SDS011;26642;55.766;37.828;2024-03-22T13:19:13;7.88;;;5.03;;
40635;SDS011;26642;55.766;37.828;2024-03-22T13:21:40;7.50;;;4.85;;
40635;SDS011;26642;55.766;37.828;2024-03-22T13:24:06;9.55;;;4.95;;
40635;SDS011;26642;55.766;37.828;2024-03-22T13:26:33;9.02;;;5.35;;
40635;SDS011;26642;55.766;37.828;2024-03-22T13:28:59;9.43;;;5.30;;
40635;SDS011;26642;55.766;37.828;2024-03-22T13:31:26;8.27;;;5.07;;
40635;SDS011;26642;55.766;37.828;2024-03-22T13:33:52;6.82;;;4.55;;
40635;SDS011;26642;55.766;37.828;2024-03-22T13:36:18;8.32;;;5.22;;
40635;SDS011;26642;55.766;37.828;2024-03-22T13:38:45;7.55;;;4.95;;
40635;SDS011;26642;55.766;37.828;2024-03-22T13:41:11;8.32;;;5.03;;
40635;SDS011;26642;55.766;37.828;2024-03-22T13:43:37;9.38;;;4.53;;
40635;SDS011;26642;55.766;37.828;2024-03-22T13:46:05;5.50;;;4.43;;
40635;SDS011;26642;55.766;37.828;2024-03-22T13:48:31;9.68;;;4.80;;
40635;SDS011;26642;55.766;37.828;2024-03-22T13:50:58;9.95;;;4.93;;
40635;SDS011;26642;55.766;37.828;2024-03-22T13:53:24;8.10;;;4.95;;
40635;SDS011;26642;55.766;37.828;2024-03-22T13:55:50;7.05;;;4.85;;
40635;SDS011;26642;55.766;37.828;2024-03-22T13:58:20;6.85;;;4.45;;
40635;SDS011;26642;55.766;37.828;2024-03-22T14:00:46;9.88;;;5.10;;
40635;SDS011;26642;55.766;37.828;2024-03-22T14:03:12;10.15;;;4.70;;
40635;SDS011;26642;55.766;37.828;2024-03-22T14:05:39;7.65;;;5.13;;
40635;SDS011;26642;55.766;37.828;2024-03-22T14:08:05;10.32;;;5.32;;
40635;SDS011;26642;55.766;37.828;2024-03-22T14:10:32;8.75;;;4.78;;
40635;SDS011;26642;55.766;37.828;2024-03-22T14:12:58;8.57;;;5.10;;
40635;SDS011;26642;55.766;37.828;2024-03-22T14:15:25;6.82;;;4.55;;
40635;SDS011;26642;55.766;37.828;2024-03-22T14:17:52;9.18;;;5.10;;
40635;SDS011;26642;55.766;37.828;2024-03-22T14:20:19;7.47;;;5.35;;
40635;SDS011;26642;55.766;37.828;2024-03-22T14:22:46;8.43;;;5.57;;
40635;SDS011;26642;55.766;37.828;2024-03-22T14:25:13;8.50;;;5.03;;
40635;SDS011;26642;55.766;37.828;2024-03-22T14:27:39;10.63;;;5.63;;
40635;SDS011;26642;55.766;37.828;2024-03-22T14:30:11;9.70;;;5.35;;